Time;durP1;ratioP1;P1;durP2;ratioP2;P2;SDS_P1;SDS_P2;PMS_P1;PMS_P2;Temp;Humidity;BMP_temperature;BMP_pressure;BME280_temperature;BME280_humidity;BME280_pressure;Samples;Min_cycle;Max_cycle;Signal;HPM_P1;HPM_P2
2021/10/18 00:01:13;;;;;;;17.92;13.60;;;;;;;21.15;36.61;94954.75;5051393;28;20045;-62
2021/10/18 00:03:40;;;;;;;16.70;13.77;;;;;;;21.39;36.02;94961.88;5050593;28;20076;-58
2021/10/18 00:06:07;;;;;;;17.48;15.27;;;;;;;21.13;36.33;94960.41;5052425;28;20048;-63
2021/10/18 00:08:34;;;;;;;20.02;17.92;;;;;;;21.50;35.69;94960.25;5051235;28;20044;-61
2021/10/18 00:11:01;;;;;;;20.42;18.23;;;;;;;21.28;35.99;94956.25;5051767;28;20051;-62
2021/10/18 00:13:28;;;;;;;21.10;18.90;;;;;;;21.33;35.83;94958.66;5051943;28;20049;-64
2021/10/18 00:15:55;;;;;;;21.08;18.88;;;;;;;21.33;35.82;94955.22;5041418;28;20056;-59
2021/10/18 00:18:22;;;;;;;20.60;18.40;;;;;;;21.95;34.71;94954.56;5035952;28;20056;-62
2021/10/18 00:20:50;;;;;;;18.67;16.73;;;;;;;22.15;34.11;94961.53;5045631;28;20049;-64
2021/10/18 00:23:17;;;;;;;20.58;16.15;;;;;;;22.21;34.12;94950.63;5055899;28;20048;-61
2021/10/18 00:25:45;;;;;;;20.92;16.30;;;;;;;21.31;35.98;94952.91;5055466;28;20056;-63
2021/10/18 00:28:12;;;;;;;19.02;15.43;;;;;;;21.55;35.61;94955.44;5055494;28;20052;-61
2021/10/18 00:30:39;;;;;;;17.42;15.18;;;;;;;21.54;35.58;94956.56;5055718;28;20049;-60
2021/10/18 00:33:06;;;;;;;19.23;16.65;;;;;;;21.72;35.37;94942.94;5055883;28;20048;-60
2021/10/18 00:35:34;;;;;;;20.67;16.63;;;;;;;22.01;34.65;94950.50;5055589;28;20041;-61
2021/10/18 00:38:01;;;;;;;19.48;15.57;;;;;;;22.46;33.84;94947.41;5051240;28;20052;-57
2021/10/18 00:40:28;;;;;;;16.42;14.68;;;;;;;21.93;34.33;94950.69;5042318;28;20052;-65
2021/10/18 00:42:55;;;;;;;16.05;13.90;;;;;;;21.87;34.52;94946.75;5055514;28;20363;-61
2021/10/18 00:45:22;;;;;;;15.90;14.20;;;;;;;21.51;35.55;94951.94;5052218;28;20053;-63
2021/10/18 00:47:49;;;;;;;15.70;14.00;;;;;;;22.17;34.27;94955.09;5035758;28;20049;-63
2021/10/18 00:50:16;;;;;;;16.60;14.55;;;;;;;22.23;34.19;94953.72;5039858;28;20053;-59
2021/10/18 00:52:44;;;;;;;18.23;15.65;;;;;;;21.97;34.54;94957.66;5055442;28;20049;-62
2021/10/18 00:55:11;;;;;;;17.75;15.15;;;;;;;22.85;32.97;94957.38;5052744;28;20067;-62
2021/10/18 00:57:39;;;;;;;20.05;16.33;;;;;;;21.93;34.81;94951.47;5035270;28;20045;-59
2021/10/18 01:00:08;;;;;;;15.55;13.95;;;;;;;22.22;33.94;94949.50;5040488;28;20056;-59
2021/10/18 01:02:38;;;;;;;17.63;15.80;;;;;;;21.98;34.35;94948.53;5054751;28;20049;-64
2021/10/18 01:05:06;;;;;;;16.13;14.43;;;;;;;22.03;34.29;94952.81;5055369;28;20044;-61
2021/10/18 01:07:34;;;;;;;18.33;15.75;;;;;;;22.32;33.65;94946.28;5054214;28;20060;-63
2021/10/18 01:10:01;;;;;;;19.38;15.82;;;;;;;22.24;34.10;94939.28;5053457;28;20044;-58
2021/10/18 01:12:28;;;;;;;17.73;15.57;;;;;;;22.85;32.79;94942.16;5054537;28;20045;-63
2021/10/18 01:14:55;;;;;;;17.23;14.18;;;;;;;22.24;33.98;94939.28;5053075;28;20044;-65
2021/10/18 01:17:23;;;;;;;19.55;15.35;;;;;;;21.81;34.79;94943.53;5035318;28;20056;-58
2021/10/18 01:19:50;;;;;;;17.13;13.30;;;;;;;22.56;33.36;94940.75;5034864;28;20045;-58
2021/10/18 01:22:17;;;;;;;14.45;12.95;;;;;;;23.07;32.27;94943.34;5043406;28;20053;-62
2021/10/18 01:24:44;;;;;;;16.20;12.60;;;;;;;22.66;33.13;94945.56;5039215;28;20049;-59
2021/10/18 01:27:13;;;;;;;14.68;12.45;;;;;;;22.96;32.53;94937.81;5054606;28;20047;-59
2021/10/18 01:29:41;;;;;;;17.42;13.95;;;;;;;21.64;35.29;94935.91;5053015;28;20061;-55
2021/10/18 01:32:08;;;;;;;17.30;13.13;;;;;;;22.10;34.38;94939.69;5052585;28;20052;-58
2021/10/18 01:34:36;;;;;;;15.93;12.88;;;;;;;21.91;34.83;94937.72;5055097;28;20041;-59
2021/10/18 01:37:04;;;;;;;13.88;12.07;;;;;;;21.82;35.09;94929.13;5054692;28;20049;-59
2021/10/18 01:39:33;;;;;;;18.25;14.75;;;;;;;21.62;35.62;94933.59;5045511;28;20048;-57
2021/10/18 01:42:00;;;;;;;19.73;14.75;;;;;;;21.70;35.49;94934.53;5051285;28;20052;-62
2021/10/18 01:44:27;;;;;;;31.95;21.02;;;;;;;21.73;35.30;94926.66;5054060;28;20049;-58
2021/10/18 01:46:54;;;;;;;32.53;22.20;;;;;;;21.44;35.75;94933.13;5054953;28;20048;-58
2021/10/18 01:49:21;;;;;;;37.45;22.38;;;;;;;21.62;35.65;94940.81;5054128;28;20041;-61
2021/10/18 01:51:48;;;;;;;35.42;21.10;;;;;;;22.29;34.74;94939.00;5053561;28;20375;-57
2021/10/18 01:54:15;;;;;;;38.88;19.90;;;;;;;22.30;34.51;94937.88;5053682;28;20061;-57
2021/10/18 01:56:42;;;;;;;35.17;18.85;;;;;;;21.59;35.79;94942.25;5036944;28;20049;-58
2021/10/18 01:59:10;;;;;;;29.15;18.27;;;;;;;21.87;35.35;94939.53;5033911;28;20053;-58
2021/10/18 02:01:37;;;;;;;27.05;17.70;;;;;;;21.33;36.72;94944.59;5047497;28;20384;-61
2021/10/18 02:04:04;;;;;;;22.00;15.90;;;;;;;22.55;34.28;94936.53;5054254;28;20053;-59
2021/10/18 02:06:31;;;;;;;25.38;17.65;;;;;;;21.96;35.36;94932.16;5045266;28;20045;-58
2021/10/18 02:08:58;;;;;;;24.05;18.23;;;;;;;21.71;35.39;94917.47;5053512;28;20052;-63
2021/10/18 02:11:25;;;;;;;22.25;16.65;;;;;;;22.42;34.37;94935.91;5042907;28;20049;-62
2021/10/18 02:13:53;;;;;;;19.38;15.35;;;;;;;22.54;34.04;94937.66;5045746;28;20045;-58
2021/10/18 02:16:22;;;;;;;23.90;17.95;;;;;;;21.71;35.76;94938.75;5048727;28;20056;-58
2021/10/18 02:18:49;;;;;;;16.27;14.25;;;;;;;22.10;34.92;94935.16;5049017;28;20041;-57
2021/10/18 02:21:16;;;;;;;16.23;13.85;;;;;;;21.86;35.33;94940.66;5053545;28;20056;-57
2021/10/18 02:23:43;;;;;;;17.67;14.70;;;;;;;21.67;35.93;94943.22;5053670;28;20051;-58
2021/10/18 02:26:10;;;;;;;15.70;13.38;;;;;;;22.68;33.95;94935.31;5053282;28;20249;-57
2021/10/18 02:28:37;;;;;;;15.02;13.05;;;;;;;22.29;34.80;94936.34;5052981;28;20056;-56
2021/10/18 02:31:04;;;;;;;15.38;11.90;;;;;;;21.99;35.35;94938.66;5053313;28;20049;-58
2021/10/18 02:33:31;;;;;;;15.23;12.13;;;;;;;21.41;36.90;94947.13;5053203;28;20040;-59
2021/10/18 02:35:58;;;;;;;14.18;11.82;;;;;;;21.28;37.30;94953.59;5036742;28;20737;-59
2021/10/18 02:38:25;;;;;;;15.90;13.07;;;;;;;21.44;36.60;94946.44;5044232;28;20049;-59
2021/10/18 02:40:53;;;;;;;19.10;13.05;;;;;;;20.69;38.42;94954.22;5053012;28;20455;-56
2021/10/18 02:43:20;;;;;;;14.25;12.07;;;;;;;20.90;38.27;94944.19;5044979;28;20049;-60
2021/10/18 02:45:49;;;;;;;14.27;11.10;;;;;;;21.20;37.63;94949.19;5053244;28;20056;-59
2021/10/18 02:48:17;;;;;;;14.52;11.93;;;;;;;20.69;38.52;94954.22;5052682;28;20045;-58
2021/10/18 02:50:44;;;;;;;15.73;12.07;;;;;;;20.96;38.01;94949.28;5052885;28;20041;-58
2021/10/18 02:53:11;;;;;;;16.70;13.02;;;;;;;20.76;38.26;94943.78;5053056;28;20049;-54
2021/10/18 02:55:39;;;;;;;14.68;12.57;;;;;;;20.36;39.15;94948.25;5052900;28;20056;-59
2021/10/18 02:58:06;;;;;;;14.70;12.90;;;;;;;20.42;38.64;94942.41;5052716;28;20049;-59
2021/10/18 03:00:33;;;;;;;14.45;12.00;;;;;;;20.43;38.90;94946.63;5052509;28;20493;-59
2021/10/18 03:03:00;;;;;;;19.92;12.90;;;;;;;21.02;37.75;94951.34;5052843;28;20048;-63
2021/10/18 03:05:28;;;;;;;13.77;12.27;;;;;;;21.63;36.64;94953.78;5052658;28;20056;-58
2021/10/18 03:07:57;;;;;;;19.35;12.68;;;;;;;20.61;38.68;94947.16;5052511;28;20059;-58
2021/10/18 03:10:24;;;;;;;15.90;13.80;;;;;;;21.31;37.53;94950.25;5052424;28;20431;-57
2021/10/18 03:12:52;;;;;;;14.18;12.70;;;;;;;21.18;37.73;94948.75;5052472;28;20056;-56
2021/10/18 03:15:19;;;;;;;15.52;13.77;;;;;;;20.88;38.13;94946.41;5052589;28;20052;-57
2021/10/18 03:17:46;;;;;;;17.88;15.95;;;;;;;21.35;36.25;94948.50;5052459;28;20052;-60
2021/10/18 03:20:14;;;;;;;17.90;15.35;;;;;;;21.28;36.67;94945.63;5052681;28;20048;-59
2021/10/18 03:22:41;;;;;;;17.13;14.77;;;;;;;22.19;34.87;94952.84;5041686;28;20053;-58
2021/10/18 03:25:09;;;;;;;16.23;14.27;;;;;;;22.01;35.11;94950.50;5040326;28;20056;-59
2021/10/18 03:27:36;;;;;;;16.42;14.60;;;;;;;21.57;36.22;94946.34;5052351;28;20049;-58
2021/10/18 03:30:04;;;;;;;15.80;14.27;;;;;;;20.83;38.32;94954.63;5052292;28;20057;-60
2021/10/18 03:32:31;;;;;;;16.65;14.07;;;;;;;20.68;38.17;94952.66;5042458;28;20049;-60
2021/10/18 03:34:59;;;;;;;14.82;12.88;;;;;;;21.54;36.61;94956.56;5032750;28;20049;-57
2021/10/18 03:37:26;;;;;;;15.27;13.65;;;;;;;21.66;35.95;94953.09;5034099;28;20049;-58
2021/10/18 03:39:53;;;;;;;15.60;12.85;;;;;;;21.78;35.54;94960.97;5035417;28;20458;-58
2021/10/18 03:42:20;;;;;;;13.85;12.38;;;;;;;21.05;36.89;94963.19;5048757;28;20578;-59
2021/10/18 03:44:47;;;;;;;15.15;13.00;;;;;;;20.72;37.67;94969.47;5052133;28;20379;-62
2021/10/18 03:47:14;;;;;;;15.18;12.15;;;;;;;21.21;36.97;94964.03;5051863;28;20055;-58
2021/10/18 03:49:41;;;;;;;15.43;11.80;;;;;;;21.19;37.19;94960.94;5052236;28;20045;-60
2021/10/18 03:52:08;;;;;;;15.38;12.18;;;;;;;21.62;36.53;94954.13;5055906;28;20048;-60
2021/10/18 03:54:35;;;;;;;14.32;11.98;;;;;;;21.41;36.25;94957.75;5056138;28;20060;-60
2021/10/18 03:57:03;;;;;;;14.05;11.30;;;;;;;21.77;36.28;94958.66;5056243;28;20053;-61
2021/10/18 03:59:30;;;;;;;13.73;11.25;;;;;;;21.45;36.79;94961.28;5054099;28;20689;-60
2021/10/18 04:01:57;;;;;;;13.13;11.00;;;;;;;21.65;35.97;94956.84;5056401;28;20431;-55
2021/10/18 04:04:24;;;;;;;13.60;12.15;;;;;;;21.29;36.81;94960.47;5056289;28;20059;-60
2021/10/18 04:06:51;;;;;;;14.13;11.85;;;;;;;21.64;36.32;94957.19;5056112;28;20379;-63
2021/10/18 04:09:18;;;;;;;12.38;11.13;;;;;;;20.48;38.31;94964.19;5055899;28;20045;-62
2021/10/18 04:11:46;;;;;;;13.25;11.88;;;;;;;20.68;38.30;94967.84;5055645;28;20044;-62
2021/10/18 04:14:13;;;;;;;13.38;11.40;;;;;;;20.85;37.85;94968.34;5055645;28;20064;-62
2021/10/18 04:16:40;;;;;;;14.50;12.55;;;;;;;20.96;37.60;94965.22;5056073;28;20048;-64
2021/10/18 04:19:07;;;;;;;14.80;12.02;;;;;;;20.71;38.16;94969.81;5055439;28;20049;-61
2021/10/18 04:21:34;;;;;;;15.68;12.52;;;;;;;21.57;35.82;94975.63;5055851;28;20712;-61
2021/10/18 04:24:02;;;;;;;14.70;12.75;;;;;;;20.33;38.26;94971.72;5055967;28;20064;-65
2021/10/18 04:26:29;;;;;;;16.00;12.70;;;;;;;21.17;36.47;94969.25;5056165;28;20045;-63
2021/10/18 04:28:56;;;;;;;16.02;12.05;;;;;;;20.60;38.16;94980.13;5055385;28;20060;-61
2021/10/18 04:31:28;;;;;;;14.23;12.38;;;;;;;21.07;37.10;94968.94;5055684;28;20056;-58
2021/10/18 04:34:00;;;;;;;16.20;13.18;;;;;;;21.17;36.76;94976.44;5056092;28;20052;-61
2021/10/18 04:36:28;;;;;;;16.33;13.75;;;;;;;20.42;37.93;94971.63;5055675;28;20049;-57
2021/10/18 04:38:56;;;;;;;18.83;13.07;;;;;;;20.74;37.84;94975.22;5054956;28;20052;-67
2021/10/18 04:41:23;;;;;;;14.70;13.10;;;;;;;21.06;37.19;94968.16;5055624;28;20040;-60
2021/10/18 04:43:50;;;;;;;14.50;12.77;;;;;;;21.27;36.97;94973.31;5055438;28;20052;-58
2021/10/18 04:46:17;;;;;;;16.73;12.40;;;;;;;20.58;38.07;94971.72;5055583;28;20056;-62
2021/10/18 04:48:44;;;;;;;18.60;14.38;;;;;;;20.43;38.60;94977.72;5054842;28;20051;-60
2021/10/18 04:51:11;;;;;;;13.40;12.00;;;;;;;20.58;38.52;94979.69;5054908;28;20048;-63
2021/10/18 04:53:39;;;;;;;17.38;13.52;;;;;;;20.62;37.93;94980.56;5055288;28;20053;-61
2021/10/18 04:56:06;;;;;;;15.73;13.77;;;;;;;20.21;38.81;94978.91;5054542;28;20060;-57
2021/10/18 04:58:33;;;;;;;17.23;13.80;;;;;;;20.44;38.59;94984.56;5054473;28;20454;-66
2021/10/18 05:01:00;;;;;;;18.00;14.65;;;;;;;20.39;38.73;94979.47;5053955;28;20045;-59
2021/10/18 05:03:27;;;;;;;24.48;14.82;;;;;;;20.27;39.39;94990.84;5055163;28;20355;-59
2021/10/18 05:05:54;;;;;;;18.67;14.30;;;;;;;20.26;38.66;94992.72;5055334;28;20079;-59
2021/10/18 05:08:21;;;;;;;18.42;15.07;;;;;;;20.46;38.20;94987.66;5054949;28;20059;-63
2021/10/18 05:10:48;;;;;;;17.38;14.05;;;;;;;20.38;38.49;94991.97;5054255;28;20363;-54
2021/10/18 05:13:15;;;;;;;15.25;13.65;;;;;;;20.66;37.93;94993.97;5054827;28;20049;-55
2021/10/18 05:15:44;;;;;;;17.40;14.15;;;;;;;20.30;38.95;94990.97;5055008;28;20045;-60
2021/10/18 05:18:11;;;;;;;21.35;13.70;;;;;;;20.50;38.41;94999.16;5054910;28;20048;-60
2021/10/18 05:20:38;;;;;;;19.55;14.35;;;;;;;20.45;39.02;95007.34;5054457;28;20561;-67
2021/10/18 05:23:05;;;;;;;19.15;14.60;;;;;;;20.04;39.75;94998.47;5054694;28;20079;-62
2021/10/18 05:25:33;;;;;;;20.63;15.40;;;;;;;20.19;40.01;95005.78;5053111;28;20053;-63
2021/10/18 05:28:00;;;;;;;22.00;17.52;;;;;;;20.12;39.62;95005.56;5054640;28;20053;-65
2021/10/18 05:30:27;;;;;;;21.50;16.00;;;;;;;20.13;39.81;95015.06;5054525;28;20048;-63
2021/10/18 05:32:56;;;;;;;19.02;15.00;;;;;;;20.35;39.09;95013.09;5054194;28;20052;-62
2021/10/18 05:35:23;;;;;;;18.45;15.23;;;;;;;20.32;39.12;95020.63;5054702;28;20055;-59
2021/10/18 05:37:51;;;;;;;20.33;15.70;;;;;;;20.25;39.26;95020.38;5054532;28;20040;-58
2021/10/18 05:40:21;;;;;;;19.33;16.13;;;;;;;20.80;37.82;95023.59;5054210;28;20045;-65
2021/10/18 05:42:49;;;;;;;18.77;15.23;;;;;;;20.01;39.67;95023.00;5052792;28;20041;-65
2021/10/18 05:45:17;;;;;;;18.23;15.32;;;;;;;20.23;39.30;95027.91;5054200;28;20056;-57
2021/10/18 05:48:15;;;;;;;15.85;13.80;;;;;;;20.23;38.87;95027.91;5054362;28;20048;-58
2021/10/18 05:50:45;;;;;;;16.52;14.48;;;;;;;20.09;39.19;95032.75;5049467;28;20049;-60
2021/10/18 05:53:13;;;;;;;16.75;13.82;;;;;;;20.20;38.86;95033.88;5053822;28;20057;-61
2021/10/18 05:55:40;;;;;;;17.20;14.63;;;;;;;19.88;39.49;95034.72;5053826;28;20052;-59
2021/10/18 05:58:11;;;;;;;17.25;15.30;;;;;;;19.88;39.27;95042.66;5053665;28;20051;-59
2021/10/18 06:00:44;;;;;;;16.33;13.30;;;;;;;19.56;40.00;95047.66;5046286;28;20049;-61
2021/10/18 06:03:13;;;;;;;17.63;15.23;;;;;;;19.85;39.43;95048.63;5052051;28;20045;-61
2021/10/18 06:05:45;;;;;;;15.45;12.82;;;;;;;19.94;39.44;95051.97;5054236;28;20049;-57
2021/10/18 06:08:14;;;;;;;14.10;12.00;;;;;;;20.06;38.73;95054.66;5053903;28;20060;-56
2021/10/18 06:10:43;;;;;;;13.25;11.77;;;;;;;20.00;39.26;95050.66;5053542;28;20048;-60
2021/10/18 06:13:11;;;;;;;13.80;11.60;;;;;;;19.93;39.06;95055.72;5052562;28;20052;-61
2021/10/18 06:15:38;;;;;;;14.23;12.15;;;;;;;20.01;39.43;95062.81;5053878;28;20056;-63
2021/10/18 06:18:13;;;;;;;13.88;12.27;;;;;;;20.14;38.89;95061.75;5053567;28;20565;-63
2021/10/18 06:20:43;;;;;;;14.02;12.05;;;;;;;20.22;38.87;95063.50;5053302;28;20049;-62
2021/10/18 06:23:12;;;;;;;14.85;12.55;;;;;;;20.25;38.46;95059.41;5051889;28;20041;-61
2021/10/18 06:25:40;;;;;;;14.63;12.32;;;;;;;20.50;38.26;95065.56;5052170;28;20044;-62
2021/10/18 06:28:08;;;;;;;16.15;12.88;;;;;;;20.42;38.37;95063.78;5053306;28;20486;-64
2021/10/18 06:30:35;;;;;;;21.70;14.52;;;;;;;20.14;38.79;95066.28;5053185;28;20132;-58
2021/10/18 06:33:03;;;;;;;15.80;14.13;;;;;;;20.20;39.33;95065.72;5053008;28;20049;-58
2021/10/18 06:35:31;;;;;;;19.35;15.07;;;;;;;20.12;39.33;95068.50;5053477;28;20060;-59
2021/10/18 06:37:59;;;;;;;19.10;15.63;;;;;;;20.36;38.56;95067.75;5053127;28;20048;-59
2021/10/18 06:40:26;;;;;;;18.80;16.83;;;;;;;20.28;38.81;95078.13;5053105;28;20057;-60
2021/10/18 06:42:53;;;;;;;17.58;15.68;;;;;;;20.61;38.04;95074.66;5053028;28;20076;-59
2021/10/18 06:45:21;;;;;;;18.30;15.00;;;;;;;20.15;38.55;95084.53;5053228;28;20049;-62
2021/10/18 06:47:48;;;;;;;17.05;14.35;;;;;;;20.35;38.16;95082.13;5053136;28;20045;-60
2021/10/18 06:50:16;;;;;;;16.25;13.35;;;;;;;20.30;38.79;95091.88;5052884;28;20049;-60
2021/10/18 06:52:44;;;;;;;13.80;12.30;;;;;;;20.38;38.39;95086.78;5052701;28;20053;-58
2021/10/18 06:55:12;;;;;;;14.25;12.70;;;;;;;20.55;38.09;95094.53;5051607;28;20490;-60
2021/10/18 06:57:39;;;;;;;12.98;11.50;;;;;;;20.59;38.06;95092.81;5052782;28;20056;-60
2021/10/18 07:00:07;;;;;;;15.05;11.50;;;;;;;20.53;37.87;95100.19;5052703;28;20482;-61
2021/10/18 07:02:36;;;;;;;12.85;11.10;;;;;;;20.55;37.93;95097.19;5051860;28;20052;-57
2021/10/18 07:05:03;;;;;;;13.15;10.93;;;;;;;20.67;37.85;95102.53;5052375;28;20048;-57
2021/10/18 07:07:31;;;;;;;15.40;11.45;;;;;;;20.66;37.48;95114.28;5052870;28;20447;-59
2021/10/18 07:10:01;;;;;;;13.60;10.65;;;;;;;20.55;38.07;95107.81;5052650;28;20052;-58
2021/10/18 07:12:29;;;;;;;13.10;10.82;;;;;;;20.80;38.26;95114.69;5052394;28;20044;-60
2021/10/18 07:14:57;;;;;;;11.85;10.20;;;;;;;20.84;37.46;95110.28;5052191;28;20056;-60
2021/10/18 07:17:26;;;;;;;12.57;9.75;;;;;;;20.75;37.82;95112.28;5052537;28;20052;-57
2021/10/18 07:19:54;;;;;;;11.95;10.32;;;;;;;20.81;38.03;95115.47;5052554;28;20063;-65
2021/10/18 07:22:25;;;;;;;12.35;10.65;;;;;;;20.88;37.62;95121.03;5032822;28;20053;-60
2021/10/18 07:24:54;;;;;;;10.73;9.63;;;;;;;20.84;37.21;95110.28;5045617;28;20049;-61
2021/10/18 07:27:23;;;;;;;13.68;10.75;;;;;;;20.68;37.49;95117.38;5032674;28;20064;-58
2021/10/18 07:29:51;;;;;;;13.52;10.15;;;;;;;21.02;37.49;95115.34;5032494;28;20049;-60
2021/10/18 07:32:18;;;;;;;11.27;9.82;;;;;;;20.97;36.77;95112.94;5032967;28;20352;-62
2021/10/18 07:34:46;;;;;;;9.85;8.85;;;;;;;21.02;37.13;95120.69;5026648;28;20045;-61
2021/10/18 07:37:13;;;;;;;11.20;10.00;;;;;;;21.04;37.18;95113.91;5052199;28;20040;-62
2021/10/18 07:39:40;;;;;;;10.95;9.57;;;;;;;20.82;37.47;95117.81;5052071;28;20045;-57
2021/10/18 07:42:13;;;;;;;10.38;9.25;;;;;;;21.07;36.92;95115.13;5052548;28;20052;-57
2021/10/18 07:44:41;;;;;;;10.32;9.18;;;;;;;21.00;36.93;95118.34;5052342;28;20049;-57
2021/10/18 07:47:08;;;;;;;10.45;8.98;;;;;;;21.05;36.84;95123.44;5052264;28;20375;-62
2021/10/18 07:49:36;;;;;;;11.27;8.73;;;;;;;21.08;36.56;95116.69;5052378;28;20041;-61
2021/10/18 07:52:04;;;;;;;11.52;10.18;;;;;;;20.89;37.00;95128.66;5052279;28;20057;-60
2021/10/18 07:54:31;;;;;;;11.85;9.90;;;;;;;20.91;37.35;95131.00;5052039;28;20053;-60
2021/10/18 07:56:58;;;;;;;10.98;9.88;;;;;;;20.83;37.06;95130.00;5052273;28;20048;-62
2021/10/18 07:59:25;;;;;;;11.25;9.82;;;;;;;20.67;37.42;95126.44;5052198;28;20053;-63
2021/10/18 08:01:55;;;;;;;12.57;9.50;;;;;;;20.68;37.99;95127.22;5052354;28;20041;-61
2021/10/18 08:04:22;;;;;;;10.25;9.25;;;;;;;20.89;37.36;95128.66;5052107;28;20045;-60
2021/10/18 08:06:49;;;;;;;10.73;9.52;;;;;;;21.15;36.65;95116.91;5052222;28;20048;-67
2021/10/18 08:09:16;;;;;;;9.80;8.85;;;;;;;20.77;36.72;95115.38;5052278;28;20049;-58
2021/10/18 08:11:43;;;;;;;9.32;8.25;;;;;;;20.89;36.67;95112.72;5052045;28;20053;-60
2021/10/18 08:14:10;;;;;;;10.25;9.20;;;;;;;20.92;36.79;95120.03;5050197;28;20387;-58
2021/10/18 08:16:38;;;;;;;10.82;9.25;;;;;;;21.17;36.35;95109.38;5051761;28;20056;-59
2021/10/18 08:19:05;;;;;;;11.20;9.38;;;;;;;21.27;36.55;95106.28;5052182;28;20040;-58
2021/10/18 08:21:32;;;;;;;14.57;10.00;;;;;;;20.94;37.13;95107.19;5052407;28;20368;-60
2021/10/18 08:23:59;;;;;;;10.13;9.00;;;;;;;20.83;36.40;95114.06;5051987;28;20049;-59
2021/10/18 08:26:26;;;;;;;11.48;10.23;;;;;;;21.08;36.81;95106.03;5051888;28;20049;-60
2021/10/18 08:28:53;;;;;;;13.05;9.73;;;;;;;21.23;37.19;95108.03;5051935;28;20065;-58
2021/10/18 08:31:20;;;;;;;15.25;10.18;;;;;;;21.42;36.43;95102.91;5052824;28;20051;-59
2021/10/18 08:33:47;;;;;;;13.27;10.35;;;;;;;21.37;36.65;95094.41;5051899;28;20041;-61
2021/10/18 08:36:15;;;;;;;13.82;11.20;;;;;;;22.41;34.16;95104.84;5051273;28;20056;-58
2021/10/18 08:38:49;;;;;;;16.02;12.27;;;;;;;21.50;36.65;95104.66;5055868;28;20048;-57
2021/10/18 08:41:25;;;;;;;13.27;11.95;;;;;;;21.36;36.36;95104.28;5055820;28;20056;-59
2021/10/18 08:46:25;;;;;;;14.35;12.95;;;;;;;21.36;36.19;95103.50;5055662;28;20056;-61
2021/10/18 08:48:54;;;;;;;14.35;12.40;;;;;;;21.41;36.14;95112.00;5055236;28;20419;-59
2021/10/18 08:51:22;;;;;;;13.75;11.77;;;;;;;21.14;36.10;95108.16;5055349;28;20052;-63
2021/10/18 08:53:49;;;;;;;14.60;13.10;;;;;;;21.13;36.15;95111.94;5040572;28;20048;-65
2021/10/18 08:56:17;;;;;;;14.60;12.85;;;;;;;21.35;35.79;95099.28;5054335;28;20052;-59
2021/10/18 08:58:44;;;;;;;14.93;12.93;;;;;;;21.48;35.90;95104.22;5054437;28;20053;-62
2021/10/18 09:01:11;;;;;;;15.40;12.95;;;;;;;21.90;34.27;95106.53;5055182;28;20198;-59
2021/10/18 09:03:39;;;;;;;14.38;11.93;;;;;;;22.17;33.83;95106.88;5049084;28;20049;-57
2021/10/18 09:06:23;;;;;;;14.85;12.40;;;;;;;21.71;34.57;95111.69;5054302;28;20383;-60
2021/10/18 09:08:56;;;;;;;14.15;12.35;;;;;;;21.45;35.68;95118.22;5054704;28;20056;-64
2021/10/18 09:11:28;;;;;;;14.25;12.75;;;;;;;21.73;35.10;95107.59;5055133;28;20045;-64
2021/10/18 09:14:00;;;;;;;16.02;12.82;;;;;;;21.77;34.94;95113.78;5052891;28;20065;-62
2021/10/18 09:16:33;;;;;;;;;;;;;;;21.74;34.88;95109.13;5055733;28;20045;-59
2021/10/18 09:19:01;;;;;;;;;;;;;;;21.87;35.09;95120.50;5055137;28;19916;-69
2021/10/18 09:21:35;;;;;;;93.00;78.68;;;;;;;21.80;35.57;95112.31;5055090;28;19913;-59
2021/10/18 09:24:03;;;;;;;17.98;15.18;;;;;;;21.85;35.94;95120.81;5054725;28;20507;-58
2021/10/18 09:26:32;;;;;;;17.98;16.08;;;;;;;22.36;34.65;95114.94;5046633;28;20057;-58
2021/10/18 09:29:11;;;;;;;15.77;14.07;;;;;;;22.19;34.06;95117.94;5054182;28;20474;-61
2021/10/18 09:31:40;;;;;;;14.23;12.73;;;;;;;22.01;34.06;95102.25;5055003;28;20067;-58
2021/10/18 09:34:13;;;;;;;14.60;13.10;;;;;;;21.74;35.13;95119.00;5054135;28;20052;-59
2021/10/18 09:36:41;;;;;;;14.32;12.90;;;;;;;21.71;35.46;95114.34;5034732;28;20041;-63
2021/10/18 09:39:25;;;;;;;15.23;13.15;;;;;;;21.59;35.98;95114.38;5049771;28;20360;-61
2021/10/18 09:41:59;;;;;;;14.10;12.27;;;;;;;21.45;35.90;95112.88;5054350;28;20463;-64
2021/10/18 10:53:28;;;;;;;;;;;;;;;21.92;35.58;95093.66;5053331;28;20049;-63
2021/10/18 10:56:16;;;;;;;13.00;10.18;;;;;;;21.80;35.91;95091.03;5052958;28;19917;-61
2021/10/18 10:58:51;;;;;;;11.57;10.38;;;;;;;22.15;35.99;95086.69;5052811;28;20053;-59
2021/10/18 11:01:39;;;;;;;11.52;10.32;;;;;;;22.14;35.02;95087.03;5052636;28;20049;-58
2021/10/18 11:04:31;;;;;;;11.57;10.35;;;;;;;21.97;36.52;95085.41;5053217;28;20060;-59
2021/10/18 11:07:00;;;;;;;11.40;10.15;;;;;;;22.25;35.20;95087.28;5052854;28;20052;-61
2021/10/18 11:09:52;;;;;;;11.18;10.05;;;;;;;22.37;35.82;95084.53;5052621;28;20049;-60
2021/10/18 11:12:23;;;;;;;12.15;10.30;;;;;;;22.32;35.56;95084.78;5051255;28;20060;-62
2021/10/18 11:15:02;;;;;;;12.77;10.30;;;;;;;22.28;35.48;95073.28;5032888;28;20160;-60
2021/10/18 11:17:37;;;;;;;12.82;10.35;;;;;;;22.26;34.91;95070.19;5033583;28;20384;-63
2021/10/18 11:20:09;;;;;;;10.27;9.27;;;;;;;22.61;35.34;95064.94;5052332;28;20044;-58
2021/10/18 11:22:41;;;;;;;10.30;9.15;;;;;;;22.44;34.64;95066.06;5052506;28;20037;-57
2021/10/18 11:25:12;;;;;;;;;;;;;;;22.50;35.03;95069.25;5052980;28;20059;-57
2021/10/18 11:27:41;;;;;;;33.72;30.13;;;;;;;22.42;35.31;95065.66;5052406;28;19916;-57
2021/10/18 11:30:11;;;;;;;29.33;26.13;;;;;;;22.63;33.96;95063.47;5052589;28;20065;-59
2021/10/18 11:32:38;;;;;;;10.77;9.65;;;;;;;22.68;34.34;95065.88;5052164;28;20055;-57
2021/10/18 11:35:17;;;;;;;12.18;8.70;;;;;;;22.71;34.47;95067.84;5052579;28;20048;-59
2021/10/18 11:38:13;;;;;;;9.20;8.25;;;;;;;22.69;33.73;95056.78;5052269;28;20074;-74
2021/10/18 11:40:43;;;;;;;8.65;7.85;;;;;;;22.56;34.43;95063.31;5052338;28;20478;-68
2021/10/18 11:43:19;;;;;;;9.52;8.52;;;;;;;22.74;35.05;95053.06;5051859;28;20052;-64
2021/10/18 11:45:52;;;;;;;9.57;8.27;;;;;;;22.72;34.21;95063.31;5052422;28;20068;-60
2021/10/18 11:48:21;;;;;;;10.30;9.30;;;;;;;22.64;35.62;95054.38;5052117;28;20045;-61
2021/10/18 11:50:53;;;;;;;10.70;8.43;;;;;;;22.60;34.01;95053.50;5052933;28;20370;-60
2021/10/18 11:53:20;;;;;;;9.27;8.38;;;;;;;22.54;34.55;95049.56;5051936;28;20053;-57
2021/10/18 11:55:49;;;;;;;8.25;7.32;;;;;;;22.94;33.37;95059.25;5052174;28;20049;-61
2021/10/18 11:58:19;;;;;;;8.25;6.88;;;;;;;22.83;33.51;95055.56;5051949;28;20052;-63
2021/10/18 12:00:46;;;;;;;11.82;6.55;;;;;;;22.66;34.07;95060.13;5051340;28;20366;-57
2021/10/18 12:03:19;;;;;;;10.70;6.88;;;;;;;22.85;33.56;95053.31;5049705;28;20466;-56
2021/10/18 12:05:51;;;;;;;7.40;6.57;;;;;;;22.68;33.67;95049.91;5032685;28;20053;-61
2021/10/18 12:08:26;;;;;;;7.85;6.63;;;;;;;22.73;34.51;95057.63;5036102;28;20052;-61
2021/10/18 12:10:53;;;;;;;8.70;7.28;;;;;;;22.83;33.45;95048.34;5052474;28;20041;-56
2021/10/18 12:13:28;;;;;;;7.47;6.70;;;;;;;22.54;34.48;95054.88;5056186;28;20056;-57
2021/10/18 12:16:04;;;;;;;59.53;53.13;;;;;;;22.66;34.23;95046.03;5056310;28;20093;-60
2021/10/18 12:18:33;;;;;;;12.75;9.32;;;;;;;22.49;33.98;95051.72;5055814;28;20041;-64
2021/10/18 12:21:03;;;;;;;10.30;8.15;;;;;;;22.63;34.31;95052.81;5056299;28;20059;-60
2021/10/18 12:23:46;;;;;;;9.73;7.35;;;;;;;22.66;34.35;95041.47;5056052;28;20056;-57
2021/10/18 12:26:14;;;;;;;;;;;;;;;23.04;33.35;95048.03;5056471;28;20052;-60
2021/10/18 12:28:42;;;;;;;9.35;6.70;;;;;;;22.71;33.79;95043.88;5055387;28;19929;-63
2021/10/18 12:31:51;;;;;;;7.15;6.45;;;;;;;22.68;33.38;95047.22;5054748;28;20041;-62
2021/10/18 12:34:22;;;;;;;9.75;6.30;;;;;;;22.74;33.89;95047.72;5052925;28;20107;-58
2021/10/18 12:37:15;;;;;;;7.72;6.85;;;;;;;22.74;33.64;95047.72;5052787;28;20064;-60
2021/10/18 12:39:44;;;;;;;9.05;6.88;;;;;;;22.82;33.60;95043.34;5054058;28;20053;-59
2021/10/18 12:42:22;;;;;;;9.63;7.03;;;;;;;22.93;33.40;95049.72;5055245;28;20057;-62